Time;durP1;ratioP1;P1;durP2;ratioP2;P2;SDS_P1;SDS_P2;PMS_P1;PMS_P2;Temp;Humidity;BMP_temperature;BMP_pressure;BME280_temperature;BME280_humidity;BME280_pressure;Samples;Min_cycle;Max_cycle;Signal;HPM_P1;HPM_P2
2023/06/10 00:01:49;;;;;;;;;19.00;19.00;;;;;22.23;95.82;98441.75;7695111;22;98371;-61
2023/06/10 00:04:55;;;;;;;;;22.60;21.00;;;;;22.19;95.97;98459.13;7697162;22;97089;-61
2023/06/10 00:07:59;;;;;;;;;22.20;19.80;;;;;22.17;96.28;98455.88;7669958;22;96709;-62
2023/06/10 00:11:02;;;;;;;;;20.00;19.00;;;;;22.19;96.67;98446.22;7669032;22;98709;-61
2023/06/10 00:14:05;;;;;;;;;20.40;20.00;;;;;22.19;97.04;98453.63;7695936;22;96745;-61
2023/06/10 00:17:09;;;;;;;;;20.00;19.00;;;;;22.22;97.25;98450.28;7697034;22;96508;-61
2023/06/10 00:20:14;;;;;;;;;23.00;20.20;;;;;22.23;97.65;98450.00;7696690;22;96262;-62
2023/06/10 00:23:18;;;;;;;;;24.00;22.00;;;;;22.27;97.90;98450.19;7643653;22;96247;-61
2023/06/10 00:26:22;;;;;;;;;21.00;18.80;;;;;22.30;97.60;98455.03;7697136;22;96451;-61
2023/06/10 00:29:25;;;;;;;;;20.50;19.00;;;;;22.32;98.21;98461.03;7669044;22;97197;-62
2023/06/10 00:32:29;;;;;;;;;21.40;20.00;;;;;22.34;97.47;98456.84;7670584;22;96440;-61
2023/06/10 00:35:33;;;;;;;;;21.80;20.00;;;;;22.39;96.68;98461.41;7698254;22;96649;-62
2023/06/10 00:38:37;;;;;;;;;21.40;20.00;;;;;22.41;96.80;98457.25;7698392;22;96420;-62
2023/06/10 00:41:40;;;;;;;;;19.00;19.00;;;;;22.43;96.35;98456.97;7671832;22;97586;-62
2023/06/10 00:44:43;;;;;;;;;19.20;16.60;;;;;22.48;96.41;98464.28;7698841;22;96670;-61
2023/06/10 00:47:47;;;;;;;;;21.75;19.75;;;;;22.48;96.54;98463.13;7698764;22;96370;-62
2023/06/10 00:50:52;;;;;;;;;22.00;21.00;;;;;22.50;96.08;98470.25;7697897;22;96487;-62
2023/06/10 00:53:56;;;;;;;;;19.80;18.00;;;;;22.50;95.96;98467.50;7685336;22;96598;-60
2023/06/10 00:57:01;;;;;;;;;23.40;20.00;;;;;22.50;95.70;98468.31;7714999;22;96132;-60
2023/06/10 01:00:07;;;;;;;;;22.00;20.50;;;;;22.48;95.93;98476.03;7713629;22;97133;-60
2023/06/10 01:03:11;;;;;;;;;17.80;17.00;;;;;22.48;95.22;98473.31;7713312;22;96184;-60
2023/06/10 01:06:26;;;;;;;;;22.50;21.00;;;;;22.38;95.23;98455.13;7683376;22;96239;-60
2023/06/10 01:09:38;;;;;;;;;19.80;19.00;;;;;22.48;95.01;98476.84;7685149;22;96710;-60
2023/06/10 01:12:48;;;;;;;;;21.00;19.20;;;;;22.40;95.08;98469.38;7683372;22;98328;-60
2023/06/10 01:15:53;;;;;;;;;21.00;20.00;;;;;22.40;95.08;98472.09;7688334;22;96318;-60
2023/06/10 01:18:56;;;;;;;;;21.60;19.60;;;;;22.39;95.02;98467.72;7661801;22;96679;-60
2023/06/10 01:22:02;;;;;;;;;21.00;19.00;;;;;22.38;95.27;98468.06;7688054;22;96563;-61
2023/06/10 01:25:07;;;;;;;;;19.40;18.00;;;;;22.35;94.92;98466.72;7713227;22;96837;-60
2023/06/10 01:28:18;;;;;;;;;23.00;22.00;;;;;22.29;95.46;98478.94;7685320;22;96589;-60
2023/06/10 01:31:33;;;;;;;;;23.00;22.00;;;;;22.30;95.45;98477.00;7712712;22;96282;-60
2023/06/10 01:34:40;;;;;;;;;21.25;21.00;;;;;22.29;96.12;98478.94;7712031;22;96308;-60
2023/06/10 01:37:47;;;;;;;;;22.00;21.00;;;;;22.28;96.44;98485.56;7685867;22;98298;-60
2023/06/10 01:40:54;;;;;;;;;22.00;22.00;;;;;22.21;96.30;98476.13;7715099;22;96206;-60
2023/06/10 01:43:57;;;;;;;;;24.00;23.00;;;;;22.24;96.46;98480.97;7688584;22;96408;-60
2023/06/10 01:47:01;;;;;;;;;21.00;19.40;;;;;22.23;96.16;98482.13;7716020;22;96740;-60
2023/06/10 01:50:05;;;;;;;;;23.75;23.00;;;;;22.22;96.53;98478.56;7690975;22;97900;-60
2023/06/10 01:53:12;;;;;;;;;24.75;22.75;;;;;22.21;96.33;98479.69;7690653;22;96081;-60
2023/06/10 01:56:17;;;;;;;;;25.00;24.00;;;;;22.21;96.69;98476.13;7715400;22;96231;-60
2023/06/10 01:59:21;;;;;;;;;23.00;22.00;;;;;22.20;97.03;98480.78;7688883;22;96350;-60
2023/06/10 02:02:25;;;;;;;;;23.00;22.00;;;;;22.22;97.02;98477.75;7691584;22;96167;-60
2023/06/10 02:05:28;;;;;;;;;24.00;22.00;;;;;22.22;97.33;98481.31;7712341;22;96217;-60
2023/06/10 02:08:33;;;;;;;;;21.00;20.00;;;;;22.22;97.42;98478.56;7714823;22;96216;-60
2023/06/10 02:11:36;;;;;;;;;24.00;20.75;;;;;22.26;97.61;98484.25;7712153;22;96368;-60
2023/06/10 02:14:39;;;;;;;;;25.00;23.00;;;;;22.26;97.78;98484.25;7711644;22;97265;-60
2023/06/10 02:17:44;;;;;;;;;22.00;21.00;;;;;22.25;97.90;98483.44;7713262;22;96171;-60
2023/06/10 02:20:48;;;;;;;;;23.60;22.40;;;;;22.28;98.15;98482.00;7710485;22;96266;-60
2023/06/10 02:23:53;;;;;;;;;24.50;23.00;;;;;22.28;98.03;98488.31;7711287;22;96303;-60
2023/06/10 02:26:56;;;;;;;;;28.75;26.50;;;;;22.29;97.86;98481.69;7713108;22;96959;-60
2023/06/10 02:30:00;;;;;;;;;23.25;21.00;;;;;22.20;98.08;98467.06;7712368;22;96584;-60
2023/06/10 02:33:09;;;;;;;;;21.20;20.20;;;;;22.34;97.93;98489.00;7738696;22;96196;-60
2023/06/10 02:36:15;;;;;;;;;22.20;22.00;;;;;22.35;97.82;98483.22;7714570;22;96650;-60
2023/06/10 02:39:20;;;;;;;;;24.80;23.80;;;;;22.36;97.97;98495.81;7713979;22;96314;-61
2023/06/10 02:42:24;;;;;;;;;24.00;22.80;;;;;22.37;97.92;98485.66;7713334;22;96942;-60
2023/06/10 02:45:29;;;;;;;;;23.00;21.50;;;;;22.36;97.85;98495.00;7711968;22;96279;-60
2023/06/10 02:48:42;;;;;;;;;21.60;20.60;;;;;22.36;98.09;98487.59;7712887;22;96387;-60
2023/06/10 02:51:47;;;;;;;;;25.20;23.60;;;;;22.37;98.07;98497.47;7713145;22;96456;-60
2023/06/10 02:54:52;;;;;;;;;21.00;21.00;;;;;22.35;98.32;98501.63;7711652;22;96351;-60
2023/06/10 02:57:56;;;;;;;;;23.60;22.00;;;;;22.29;98.74;98489.91;7717049;22;96241;-60
2023/06/10 03:01:01;;;;;;;;;25.00;22.60;;;;;22.39;98.95;98500.69;7714649;22;96210;-60
2023/06/10 03:04:13;;;;;;;;;23.00;21.00;;;;;22.43;98.79;98506.41;7663720;22;97814;-60
2023/06/10 03:07:23;;;;;;;;;24.20;22.20;;;;;22.38;98.63;98510.03;7688647;22;96267;-60
2023/06/10 03:10:31;;;;;;;;;22.20;22.00;;;;;22.41;98.04;98514.13;7686931;22;96338;-60
2023/06/10 03:13:36;;;;;;;;;23.40;22.40;;;;;22.42;98.02;98513.00;7689216;22;96210;-60
2023/06/10 03:16:40;;;;;;;;;24.80;24.00;;;;;22.40;98.08;98512.50;7689257;22;96405;-60
2023/06/10 03:19:45;;;;;;;;;23.80;21.00;;;;;22.30;98.67;98509.97;7688364;22;96924;-60
2023/06/10 03:22:49;;;;;;;;;28.00;24.00;;;;;22.19;99.69;98516.78;7684555;22;97279;-60
2023/06/10 03:25:55;;;;;;;;;24.00;23.40;;;;;22.18;99.61;98524.22;7685424;22;96824;-60
2023/06/10 03:28:59;;;;;;;;;25.40;24.00;;;;;22.15;100.00;98522.06;7683662;22;96239;-60
2023/06/10 03:32:03;;;;;;;;;28.60;24.00;;;;;22.12;100.00;98508.16;7681779;22;96384;-60
2023/06/10 03:35:07;;;;;;;;;27.40;26.40;;;;;22.09;100.00;98503.28;7682702;22;96467;-60
2023/06/10 03:38:12;;;;;;;;;26.80;23.80;;;;;22.17;100.00;98519.84;7685270;22;95959;-60
2023/06/10 03:41:17;;;;;;;;;24.00;24.00;;;;;22.16;100.00;98526.47;7711362;22;96791;-60
2023/06/10 03:44:21;;;;;;;;;24.00;22.75;;;;;22.12;100.00;98519.97;7684112;22;96505;-60
2023/06/10 03:47:24;;;;;;;;;26.60;25.00;;;;;22.15;100.00;98527.56;7682250;22;96277;-60
2023/06/10 03:50:29;;;;;;;;;25.80;23.80;;;;;22.20;100.00;98526.66;7709348;22;96207;-60
2023/06/10 03:53:32;;;;;;;;;27.00;26.00;;;;;22.18;100.00;98526.16;7683618;22;96644;-60
2023/06/10 03:56:37;;;;;;;;;28.40;26.60;;;;;22.17;100.00;98525.34;7658971;22;98941;-60
2023/06/10 03:59:41;;;;;;;;;25.75;23.75;;;;;22.25;100.00;98535.59;7686059;22;96597;-60
2023/06/10 04:02:48;;;;;;;;;28.00;25.00;;;;;22.30;100.00;98535.50;7697269;22;96339;-60
2023/06/10 04:06:00;;;;;;;;;30.40;28.40;;;;;22.36;100.00;98534.28;7713227;22;96937;-60
2023/06/10 04:09:04;;;;;;;;;29.25;28.25;;;;;22.40;100.00;98538.03;7713487;22;96352;-60
2023/06/10 04:12:10;;;;;;;;;34.60;31.20;;;;;22.37;100.00;98537.84;7714133;22;96913;-60
2023/06/10 04:15:14;;;;;;;;;29.00;27.00;;;;;22.40;100.00;98540.78;7712526;22;96497;-61
2023/06/10 04:18:18;;;;;;;;;25.50;25.00;;;;;22.44;100.00;98540.97;7713530;22;96315;-61
2023/06/10 04:21:22;;;;;;;;;28.80;26.60;;;;;22.51;100.00;98544.13;7713667;22;96730;-60
2023/06/10 04:24:26;;;;;;;;;23.00;22.00;;;;;22.53;100.00;98544.63;7712216;22;96889;-60
2023/06/10 04:27:31;;;;;;;;;21.80;21.00;;;;;22.51;100.00;98540.56;7711722;22;96319;-60
2023/06/10 04:30:36;;;;;;;;;22.00;21.00;;;;;22.51;100.00;98540.56;7712014;22;96453;-60
2023/06/10 04:33:40;;;;;;;;;24.00;23.00;;;;;22.35;100.00;98543.63;7713421;22;96305;-60
2023/06/10 04:36:44;;;;;;;;;23.00;22.00;;;;;22.38;100.00;98545.75;7712591;22;97558;-60
2023/06/10 04:39:47;;;;;;;;;20.60;20.00;;;;;22.37;100.00;98546.09;7712162;22;96075;-61
2023/06/10 04:42:52;;;;;;;;;20.80;20.00;;;;;22.28;100.00;98548.75;7712986;22;96294;-61
2023/06/10 04:45:56;;;;;;;;;24.00;23.00;;;;;22.24;100.00;98550.44;7713137;22;96354;-60
2023/06/10 04:49:00;;;;;;;;;24.00;21.00;;;;;22.32;100.00;98554.41;7712438;22;96947;-60
2023/06/10 04:52:05;;;;;;;;;20.25;19.50;;;;;22.35;100.00;98560.09;7713544;22;96517;-60
2023/06/10 04:55:12;;;;;;;;;25.60;21.40;;;;;22.38;100.00;98559.47;7711557;22;96236;-60
2023/06/10 04:58:17;;;;;;;;;24.20;22.80;;;;;22.43;100.00;98567.63;7713541;22;96411;-60
2023/06/10 05:01:21;;;;;;;;;24.00;23.00;;;;;22.42;100.00;98567.94;7711825;22;96794;-60
2023/06/10 05:04:24;;;;;;;;;22.20;20.60;;;;;22.45;100.00;98573.63;7711337;22;96269;-60
2023/06/10 05:07:27;;;;;;;;;22.00;22.00;;;;;22.40;100.00;98565.50;7712285;22;96736;-60
2023/06/10 05:10:31;;;;;;;;;19.00;19.00;;;;;22.54;100.00;98570.16;7685972;22;96645;-60
2023/06/10 05:13:36;;;;;;;;;19.25;19.00;;;;;22.53;99.77;98574.03;7686314;22;96967;-60
2023/06/10 05:16:39;;;;;;;;;18.33;16.00;;;;;22.46;100.00;98579.94;7714042;22;96286;-60
2023/06/10 05:19:43;;;;;;;;;18.60;18.40;;;;;22.53;99.37;98565.81;7684258;22;96840;-61
2023/06/10 05:22:47;;;;;;;;;19.50;18.00;;;;;22.60;98.91;98578.00;7713284;22;96243;-61
2023/06/10 05:25:53;;;;;;;;;19.50;18.50;;;;;22.59;98.85;98584.59;7713768;22;96577;-61
2023/06/10 05:28:58;;;;;;;;;20.00;18.00;;;;;22.67;97.71;98580.34;7710757;22;96636;-61
2023/06/10 05:32:07;;;;;;;;;23.60;22.00;;;;;22.63;96.80;98582.03;7709407;22;96331;-61
2023/06/10 05:35:10;;;;;;;;;21.80;19.20;;;;;22.70;96.63;98583.31;7711394;22;96833;-61
2023/06/10 05:38:14;;;;;;;;;26.00;21.40;;;;;22.74;96.33;98583.50;7684965;22;97224;-61
2023/06/10 05:41:18;;;;;;;;;19.50;19.00;;;;;22.76;95.72;98581.25;7712811;22;96868;-60
2023/06/10 05:44:22;;;;;;;;;20.00;18.00;;;;;22.73;94.74;98585.41;7685905;22;96231;-60
2023/06/10 05:47:26;;;;;;;;;21.00;20.00;;;;;22.76;94.78;98593.06;7714112;22;96700;-60
2023/06/10 05:50:29;;;;;;;;;17.40;16.00;;;;;22.94;94.54;98588.53;7712894;22;96781;-60
2023/06/10 05:53:33;;;;;;;;;18.75;18.00;;;;;23.06;92.85;98579.75;7715552;22;96839;-60
2023/06/10 05:56:39;;;;;;;;;18.40;18.00;;;;;23.12;92.12;98589.50;7714933;22;96336;-60
2023/06/10 05:59:44;;;;;;;;;16.40;16.40;;;;;23.30;91.67;98589.34;7715229;22;96168;-61
2023/06/10 06:02:50;;;;;;;;;20.40;17.00;;;;;23.44;90.92;98589.28;7712088;22;96281;-61
2023/06/10 06:05:54;;;;;;;;;15.20;14.20;;;;;23.31;88.47;98587.41;7712712;22;96542;-61
2023/06/10 06:08:57;;;;;;;;;16.60;16.60;;;;;23.46;88.69;98588.97;7686282;22;96626;-61
2023/06/10 06:12:00;;;;;;;;;17.00;16.00;;;;;23.58;88.07;98583.72;7714771;22;96216;-61
2023/06/10 06:15:08;;;;;;;;;18.40;17.00;;;;;23.73;86.12;98583.34;7714381;22;96288;-60
2023/06/10 06:18:11;;;;;;;;;21.00;18.40;;;;;23.77;85.40;98578.00;7713131;22;96185;-61
2023/06/10 06:21:15;;;;;;;;;16.00;15.00;;;;;24.01;85.84;98583.97;7711973;22;96122;-61
2023/06/10 06:24:18;;;;;;;;;17.00;17.00;;;;;24.00;82.70;98585.91;7716705;22;96792;-61
2023/06/10 06:27:21;;;;;;;;;17.80;17.80;;;;;24.00;81.80;98585.09;7716011;22;96311;-61
2023/06/10 06:30:26;;;;;;;;;15.00;13.50;;;;;24.08;81.58;98587.09;7713012;22;97146;-61
2023/06/10 06:33:30;;;;;;;;;13.00;13.00;;;;;24.20;81.26;98592.84;7684996;22;96427;-61
2023/06/10 06:36:33;;;;;;;;;19.00;18.00;;;;;24.38;78.98;98588.22;7684844;22;98350;-60
2023/06/10 06:39:37;;;;;;;;;16.00;15.40;;;;;24.45;78.93;98596.81;7714771;22;96279;-60
2023/06/10 06:42:40;;;;;;;;;14.00;14.00;;;;;24.33;76.06;98599.38;7685169;22;96652;-61
2023/06/10 06:45:53;;;;;;;;;17.60;16.60;;;;;24.43;76.68;98601.84;7687242;22;96168;-61
2023/06/10 06:48:56;;;;;;;;;14.75;14.00;;;;;24.49;77.30;98606.06;7714477;22;96454;-61
2023/06/10 06:52:00;;;;;;;;;15.00;14.00;;;;;24.51;75.88;98596.38;7715192;22;96250;-61
2023/06/10 06:55:04;;;;;;;;;15.00;14.00;;;;;24.70;75.28;98598.03;7713704;22;97036;-61
2023/06/10 06:58:08;;;;;;;;;16.00;15.00;;;;;24.79;75.20;98612.63;7714376;22;96272;-61
2023/06/10 07:01:12;;;;;;;;;13.40;13.00;;;;;24.90;74.52;98609.28;7686871;22;98435;-61
2023/06/10 07:04:17;;;;;;;;;13.75;12.75;;;;;25.03;73.93;98611.09;7711890;22;96545;-61
2023/06/10 07:07:20;;;;;;;;;16.00;15.00;;;;;25.10;72.37;98612.56;7712938;22;96233;-61
2023/06/10 07:10:24;;;;;;;;;15.00;14.40;;;;;25.30;72.22;98612.75;7685446;22;96283;-61
2023/06/10 07:13:28;;;;;;;;;16.67;15.00;;;;;25.26;71.00;98610.97;7685440;22;96285;-61
2023/06/10 07:16:33;;;;;;;;;13.00;13.00;;;;;25.10;69.82;98618.91;7714962;22;96261;-61
2023/06/10 07:19:37;;;;;;;;;17.00;16.00;;;;;25.15;71.69;98620.69;7716437;22;96504;-61
2023/06/10 07:22:41;;;;;;;;;13.00;12.20;;;;;25.08;71.08;98620.34;7660439;22;99144;-60
2023/06/10 07:25:44;;;;;;;;;17.00;14.00;;;;;25.11;70.52;98634.31;7686492;22;98889;-60
2023/06/10 07:28:47;;;;;;;;;17.00;15.00;;;;;25.02;71.65;98631.53;7712871;22;96357;-60
2023/06/10 07:31:53;;;;;;;;;15.00;15.00;;;;;25.03;71.02;98621.31;7685237;22;98411;-60
2023/06/10 07:34:56;;;;;;;;;14.00;12.75;;;;;25.07;70.65;98618.75;7714984;22;96204;-60
2023/06/10 07:37:59;;;;;;;;;17.00;15.00;;;;;25.17;71.02;98624.72;7714456;22;96190;-60
2023/06/10 07:41:03;;;;;;;;;15.20;13.20;;;;;25.26;70.85;98624.75;7713386;22;96170;-60
2023/06/10 07:44:06;;;;;;;;;14.75;14.75;;;;;25.37;70.72;98626.84;7714713;22;96533;-60
2023/06/10 07:47:11;;;;;;;;;13.50;13.00;;;;;25.26;70.14;98633.03;7715859;22;96146;-60
2023/06/10 07:50:14;;;;;;;;;15.00;13.40;;;;;25.32;69.54;98628.94;7716281;22;96120;-60
2023/06/10 07:53:18;;;;;;;;;14.20;14.20;;;;;25.58;69.08;98626.22;7718335;22;96266;-60
2023/06/10 07:56:21;;;;;;;;;13.50;13.00;;;;;25.64;68.10;98628.50;7691201;22;96769;-61
2023/06/10 07:59:26;;;;;;;;;13.00;12.00;;;;;25.51;66.06;98621.16;7689803;22;98488;-61
2023/06/10 08:02:31;;;;;;;;;16.00;14.00;;;;;25.62;67.76;98633.53;7717573;22;96276;-61
2023/06/10 08:05:35;;;;;;;;;15.00;14.60;;;;;25.97;66.07;98634.28;7715355;22;96592;-61
2023/06/10 08:08:41;;;;;;;;;14.50;13.50;;;;;26.19;64.14;98634.03;7715259;22;96415;-61
2023/06/10 08:11:45;;;;;;;;;15.00;13.20;;;;;26.39;63.82;98638.06;7716188;22;96295;-61
2023/06/10 08:14:48;;;;;;;;;15.00;14.00;;;;;26.60;61.42;98635.38;7705327;22;96527;-62
2023/06/10 08:17:53;;;;;;;;;16.00;15.00;;;;;26.68;59.95;98648.38;7670264;22;96217;-62
2023/06/10 08:20:56;;;;;;;;;15.50;14.75;;;;;26.77;59.23;98642.78;7696673;22;96268;-62
2023/06/10 08:23:59;;;;;;;;;17.00;15.00;;;;;26.79;59.47;98648.78;7697138;22;96812;-62
2023/06/10 08:27:03;;;;;;;;;12.40;12.00;;;;;26.72;58.21;98641.03;7697031;22;96391;-62
2023/06/10 08:30:10;;;;;;;;;15.00;14.50;;;;;26.86;59.92;98644.38;7696555;22;96329;-62
2023/06/10 08:33:15;;;;;;;;;14.60;14.00;;;;;26.86;59.64;98638.00;7695711;22;96685;-62
2023/06/10 08:36:18;;;;;;;;;16.00;14.25;;;;;27.30;60.47;98642.94;7694495;22;96594;-62
2023/06/10 08:39:22;;;;;;;;;12.60;12.00;;;;;27.42;57.84;98633.88;7695531;22;96741;-62
2023/06/10 08:42:29;;;;;;;;;16.00;15.00;;;;;27.40;56.17;98644.50;7696232;22;96312;-62
2023/06/10 08:45:35;;;;;;;;;14.40;13.40;;;;;27.49;58.34;98643.31;7696843;22;96170;-62
2023/06/10 08:48:44;;;;;;;;;13.80;12.80;;;;;27.87;56.99;98636.75;7691014;22;96771;-62
2023/06/10 08:51:51;;;;;;;;;14.60;14.00;;;;;28.12;55.87;98641.25;7668659;22;96465;-62
2023/06/10 08:54:59;;;;;;;;;14.33;14.00;;;;;28.09;53.91;98647.47;7670944;22;96879;-62
2023/06/10 08:58:03;;;;;;;;;12.60;11.60;;;;;28.13;54.98;98640.13;7695189;22;96933;-62
2023/06/10 09:01:07;;;;;;;;;12.00;11.00;;;;;28.11;54.94;98624.94;7695727;22;96580;-62
2023/06/10 09:04:12;;;;;;;;;13.00;13.00;;;;;28.01;54.00;98640.03;7697228;22;96414;-62
2023/06/10 09:07:17;;;;;;;;;13.25;12.75;;;;;28.13;54.27;98637.34;7665594;22;96856;-62
2023/06/10 09:10:20;;;;;;;;;12.00;11.60;;;;;27.81;52.54;98621.50;7666408;22;96584;-62
2023/06/10 09:13:23;;;;;;;;;14.50;13.00;;;;;27.88;54.52;98635.63;7694986;22;96368;-62
2023/06/10 09:16:27;;;;;;;;;12.00;11.00;;;;;27.95;53.28;98635.88;7695662;22;97009;-62
2023/06/10 09:19:32;;;;;;;;;12.80;12.80;;;;;27.92;51.99;98631.00;7697355;22;96857;-62
2023/06/10 09:22:36;;;;;;;;;11.00;11.00;;;;;28.14;51.47;98635.38;7698144;22;97463;-62
2023/06/10 09:25:40;;;;;;;;;11.60;11.00;;;;;28.57;51.13;98630.13;7694458;22;96526;-63
2023/06/10 09:28:45;;;;;;;;;11.25;11.00;;;;;29.05;50.91;98639.59;7693527;22;96398;-62
2023/06/10 09:31:48;;;;;;;;;11.50;10.50;;;;;29.15;48.12;98639.13;7694192;22;96471;-63
2023/06/10 09:34:53;;;;;;;;;12.00;12.00;;;;;29.28;48.64;98635.97;7695495;22;97414;-62
2023/06/10 09:37:57;;;;;;;;;11.40;10.00;;;;;29.24;49.38;98637.81;7692310;22;96490;-62
2023/06/10 09:41:01;;;;;;;;;10.00;10.00;;;;;29.22;49.07;98637.34;7695852;22;96199;-62
2023/06/10 09:44:13;;;;;;;;;13.40;12.40;;;;;29.11;48.68;98633.47;7697715;22;96672;-62
2023/06/10 09:47:22;;;;;;;;;11.50;10.75;;;;;28.99;49.58;98630.69;7694689;22;96392;-62
2023/06/10 09:50:33;;;;;;;;;11.00;10.00;;;;;28.84;48.91;98623.06;7697331;22;96582;-62
2023/06/10 09:53:37;;;;;;;;;11.00;11.00;;;;;28.82;49.54;98634.53;7644682;22;96637;-61
2023/06/10 09:56:42;;;;;;;;;12.50;12.00;;;;;28.70;49.78;98633.69;7698225;22;97037;-61
2023/06/10 09:59:46;;;;;;;;;11.00;10.00;;;;;28.42;50.05;98630.81;7698100;22;96214;-61
2023/06/10 10:02:51;;;;;;;;;13.60;12.60;;;;;28.19;51.11;98635.97;7698581;22;96317;-61
2023/06/10 10:06:01;;;;;;;;;13.25;12.25;;;;;28.03;51.74;98634.97;7694928;22;96564;-61
2023/06/10 10:09:05;;;;;;;;;14.50;12.50;;;;;27.92;52.21;98633.78;7672062;22;97137;-61
2023/06/10 10:12:11;;;;;;;;;12.60;11.60;;;;;27.72;50.95;98631.84;7696709;22;97060;-61
2023/06/10 10:15:17;;;;;;;;;14.00;12.00;;;;;27.60;53.41;98645.66;7695410;22;98658;-61
2023/06/10 10:18:28;;;;;;;;;12.00;11.00;;;;;27.42;53.12;98645.78;7697544;22;96430;-63
2023/06/10 10:21:40;;;;;;;;;10.00;10.00;;;;;27.26;53.30;98652.28;7669938;22;96203;-65
2023/06/10 10:24:50;;;;;;;;;12.00;11.50;;;;;27.27;54.95;98648.34;7696326;22;96339;-63
2023/06/10 10:28:06;;;;;;;;;12.00;12.00;;;;;27.32;53.57;98651.72;7667264;22;98459;-63
2023/06/10 10:31:11;;;;;;;;;9.50;9.00;;;;;27.29;53.70;98646.03;7667932;22;98335;-63
2023/06/10 10:34:17;;;;;;;;;10.40;9.40;;;;;27.40;53.62;98641.75;7695059;22;96215;-63
2023/06/10 10:37:22;;;;;;;;;9.60;9.00;;;;;27.42;54.45;98648.53;7695074;22;96510;-62
2023/06/10 10:40:29;;;;;;;;;11.00;10.00;;;;;27.42;55.79;98644.97;7667988;22;97502;-62
2023/06/10 10:43:33;;;;;;;;;10.00;9.80;;;;;27.52;56.31;98656.47;7697246;22;97550;-63
2023/06/10 10:46:43;;;;;;;;;10.00;10.00;;;;;27.95;54.56;98641.44;7670032;22;97381;-63
2023/06/10 10:49:51;;;;;;;;;10.00;10.00;;;;;28.33;53.59;98641.19;7698052;22;96278;-63
2023/06/10 10:52:59;;;;;;;;;12.50;11.50;;;;;28.52;52.26;98651.72;7698260;22;96451;-63
2023/06/10 10:56:07;;;;;;;;;11.40;11.00;;;;;28.49;51.93;98650.47;7697944;22;96331;-63
2023/06/10 10:59:11;;;;;;;;;11.00;10.00;;;;;28.26;53.53;98654.78;7698216;22;96410;-63
2023/06/10 11:02:18;;;;;;;;;12.00;10.00;;;;;28.08;54.76;98656.13;7672468;22;96189;-62
2023/06/10 11:05:33;;;;;;;;;12.00;10.20;;;;;27.90;57.07;98641.66;7696424;22;96525;-63
2023/06/10 11:09:00;;;;;;;;;11.00;11.00;;;;;27.80;58.08;98648.41;7693146;22;96336;-63
2023/06/10 11:12:08;;;;;;;;;13.00;11.00;;;;;27.60;55.83;98653.97;7694377;22;96051;-63
2023/06/10 11:15:12;;;;;;;;;11.00;11.00;;;;;27.37;58.11;98647.94;7695495;22;96443;-63
2023/06/10 11:18:25;;;;;;;;;14.00;14.00;;;;;27.44;60.48;98643.47;7695927;22;97421;-64
2023/06/10 11:21:28;;;;;;;;;14.33;13.33;;;;;27.54;61.78;98651.41;7696961;22;96540;-64
2023/06/10 11:24:33;;;;;;;;;13.00;11.00;;;;;27.69;62.75;98649.16;7691382;22;97196;-64
2023/06/10 11:27:44;;;;;;;;;11.00;11.00;;;;;27.60;61.29;98637.38;7694229;22;96454;-65
2023/06/10 11:30:58;;;;;;;;;16.00;14.60;;;;;27.85;63.05;98642.66;7667757;22;96489;-64
2023/06/10 11:34:07;;;;;;;;;17.80;15.80;;;;;27.90;63.91;98639.69;7695897;22;96927;-64
2023/06/10 11:37:11;;;;;;;;;14.00;13.40;;;;;28.03;62.87;98637.75;7694919;22;97282;-65
2023/06/10 11:40:17;;;;;;;;;15.00;13.00;;;;;28.03;61.56;98634.97;7693048;22;98466;-64
2023/06/10 11:43:21;;;;;;;;;13.00;13.00;;;;;28.01;59.12;98640.84;7695776;22;96467;-64
2023/06/10 11:46:27;;;;;;;;;13.00;13.00;;;;;27.72;58.04;98642.94;7692912;22;98448;-64
2023/06/10 11:49:31;;;;;;;;;14.20;14.20;;;;;27.71;59.85;98655.19;7696215;22;96285;-64
2023/06/10 11:52:39;;;;;;;;;15.00;15.00;;;;;27.46;59.52;98646.75;7696259;22;96635;-63
2023/06/10 11:55:45;;;;;;;;;15.40;14.40;;;;;27.36;61.87;98655.44;7695867;22;96640;-64
2023/06/10 11:58:54;;;;;;;;;9.80;9.20;;;;;27.41;60.00;98649.72;7696806;22;96277;-64
2023/06/10 12:01:58;;;;;;;;;8.75;8.75;;;;;27.61;59.89;98645.34;7695684;22;96485;-64
2023/06/10 12:05:11;;;;;;;;;10.50;10.50;;;;;27.71;56.63;98641.34;7697082;22;96492;-64
2023/06/10 12:08:15;;;;;;;;;10.00;10.00;;;;;27.56;55.70;98653.84;7696599;22;96504;-64
2023/06/10 12:11:20;;;;;;;;;9.00;9.00;;;;;27.55;53.82;98655.00;7696351;22;96776;-64
2023/06/10 12:14:51;;;;;;;;;9.00;8.25;;;;;27.79;54.44;98648.75;7698003;22;96345;-64
2023/06/10 12:17:54;;;;;;;;;8.00;8.00;;;;;28.15;53.83;98637.78;7697781;22;96697;-64
2023/06/10 12:20:58;;;;;;;;;8.60;8.60;;;;;28.28;50.43;98636.69;7697784;22;96471;-63
2023/06/10 12:24:09;;;;;;;;;8.50;7.50;;;;;28.44;51.70;98645.16;7697846;22;96459;-64
2023/06/10 12:27:16;;;;;;;;;8.00;8.00;;;;;28.52;51.15;98635.91;7701642;22;96296;-61
2023/06/10 12:30:21;;;;;;;;;11.00;11.00;;;;;28.88;49.83;98639.88;7701603;22;97454;-62
2023/06/10 12:33:24;;;;;;;;;10.00;9.40;;;;;29.00;49.07;98637.88;7673617;22;98347;-62
2023/06/10 12:36:28;;;;;;;;;8.00;8.00;;;;;28.93;48.62;98643.19;7703533;22;96490;-61
2023/06/10 12:39:32;;;;;;;;;8.00;8.00;;;;;28.90;49.66;98634.75;7673845;22;96240;-62
2023/06/10 12:42:38;;;;;;;;;9.00;9.00;;;;;28.81;46.84;98634.88;7702228;22;96368;-61
2023/06/10 12:45:44;;;;;;;;;8.00;8.00;;;;;28.97;47.49;98638.56;7703150;22;96526;-62
2023/06/10 12:48:54;;;;;;;;;8.25;8.25;;;;;29.15;48.85;98651.03;7700291;22;96516;-62
2023/06/10 12:51:57;;;;;;;;;7.00;7.00;;;;;29.13;47.25;98635.88;7702018;22;96201;-61
2023/06/10 12:55:01;;;;;;;;;8.40;8.40;;;;;29.26;47.24;98640.25;7702087;22;96254;-62
2023/06/10 12:58:06;;;;;;;;;8.80;8.00;;;;;29.22;46.28;98631.03;7700564;22;96369;-61
2023/06/10 13:01:09;;;;;;;;;6.00;5.00;;;;;28.97;43.73;98629.44;7701089;22;96251;-62
2023/06/10 13:04:12;;;;;;;;;8.00;7.60;;;;;28.76;44.29;98632.34;7703623;22;96246;-61
2023/06/10 13:07:16;;;;;;;;;7.00;7.00;;;;;28.79;46.14;98621.34;7702723;22;97042;-61
2023/06/10 13:10:20;;;;;;;;;5.25;5.25;;;;;28.93;44.93;98631.31;7703204;22;96913;-61
2023/06/10 13:13:29;;;;;;;;;9.75;7.75;;;;;29.01;44.17;98627.56;7701738;22;97314;-62
2023/06/10 13:16:32;;;;;;;;;7.00;6.60;;;;;29.17;44.44;98620.97;7700760;22;96363;-62
2023/06/10 13:19:36;;;;;;;;;6.60;6.00;;;;;29.26;44.18;98629.16;7701464;22;96859;-62
2023/06/10 13:22:40;;;;;;;;;7.00;7.00;;;;;29.46;44.33;98619.06;7700674;22;96229;-61
2023/06/10 13:25:44;;;;;;;;;8.50;8.00;;;;;29.51;43.72;98624.38;7699859;22;96905;-61
2023/06/10 13:28:49;;;;;;;;;5.20;5.20;;;;;29.65;43.92;98622.00;7701888;22;96751;-61
2023/06/10 13:31:52;;;;;;;;;7.40;7.00;;;;;29.36;42.08;98625.91;7702705;22;96267;-62
2023/06/10 13:34:56;;;;;;;;;7.20;7.00;;;;;29.15;41.92;98630.78;7699190;22;96244;-62
2023/06/10 13:38:00;;;;;;;;;8.00;7.40;;;;;28.88;43.33;98629.56;7702909;22;96014;-60
2023/06/10 13:41:03;;;;;;;;;13.60;13.00;;;;;28.78;43.91;98630.03;7704154;22;96783;-61
2023/06/10 13:44:08;;;;;;;;;15.00;14.00;;;;;28.34;43.51;98627.00;7702918;22;96175;-61
2023/06/10 13:47:11;;;;;;;;;11.00;10.00;;;;;27.97;45.01;98636.34;7702831;22;96297;-61
2023/06/10 13:50:15;;;;;;;;;10.00;9.00;;;;;27.68;47.08;98628.16;7676508;22;96339;-61
2023/06/10 13:53:18;;;;;;;;;9.00;8.00;;;;;27.77;46.97;98628.88;7676973;22;96591;-61
2023/06/10 13:56:22;;;;;;;;;6.40;5.60;;;;;27.77;47.36;98634.41;7704745;22;96477;-61
2023/06/10 13:59:27;;;;;;;;;5.00;4.20;;;;;27.81;46.91;98621.50;7677942;22;97740;-61
2023/06/10 14:02:30;;;;;;;;;8.60;8.00;;;;;27.86;48.02;98624.88;7702755;22;96243;-61
2023/06/10 14:05:34;;;;;;;;;7.60;7.00;;;;;27.73;47.43;98622.41;7704628;22;96770;-62
2023/06/10 14:08:38;;;;;;;;;7.60;7.00;;;;;28.05;48.25;98627.13;7705254;22;96771;-61
2023/06/10 14:11:42;;;;;;;;;8.00;8.00;;;;;28.35;47.16;98622.22;7677610;22;96882;-62
2023/06/10 14:14:47;;;;;;;;;8.40;7.60;;;;;28.49;47.22;98625.50;7703814;22;96250;-61